< < Back
Terminal Aerodrome Forecast


Current Version              Previous Versions:   1  2  3  4  5  6  7  8  9  

Terminal Aerodrome Forecast

466
FTUS44 KBMX 011158 AAA
TAFTCL
TAF AMD
KTCL 011158Z 0112/0212 05003KT 1/2SM FG OVC002
      TEMPO 0112/0114 3SM BR SCT002 BKN015
     FM011400 16003KT P6SM SCT020 SCT120
     FM011600 18005KT P6SM BKN035
     FM012000 18005KT P6SM VCTS BKN045CB
     FM020000 14003KT P6SM SCT040 BKN100=

Latest METAR

495
SAUS70 KWBC 012000 RRX
MTRTCL
METAR KTCL 012053Z 17007KT 10SM CLR 28/14 A2999 RMK AO2 SLP154 T02780144
58026


USA.gov is the U.S. government's official web portal to all federal, state and local government web resources and services.